sensor_id;sensor_type;location;lat;lon;timestamp;temperature;humidity
43346;DHT22;28937;51.160;4.146;2022-12-18T00:01:53;5.40;81.90
43346;DHT22;28937;51.160;4.146;2022-12-18T00:04:22;5.30;82.00
43346;DHT22;28937;51.160;4.146;2022-12-18T00:06:48;5.30;81.90
43346;DHT22;28937;51.160;4.146;2022-12-18T00:09:14;5.30;81.80
43346;DHT22;28937;51.160;4.146;2022-12-18T00:11:40;5.40;81.40
43346;DHT22;28937;51.160;4.146;2022-12-18T00:14:05;5.40;81.40
43346;DHT22;28937;51.160;4.146;2022-12-18T00:16:31;5.40;81.70
43346;DHT22;28937;51.160;4.146;2022-12-18T00:18:59;5.40;81.50
43346;DHT22;28937;51.160;4.146;2022-12-18T00:21:26;5.40;81.50
43346;DHT22;28937;51.160;4.146;2022-12-18T00:23:52;5.30;81.60
43346;DHT22;28937;51.160;4.146;2022-12-18T00:26:21;5.40;81.30
43346;DHT22;28937;51.160;4.146;2022-12-18T00:28:47;5.50;81.10
43346;DHT22;28937;51.160;4.146;2022-12-18T00:31:15;5.50;80.50
43346;DHT22;28937;51.160;4.146;2022-12-18T00:33:41;5.60;79.90
43346;DHT22;28937;51.160;4.146;2022-12-18T00:36:10;5.50;79.40
43346;DHT22;28937;51.160;4.146;2022-12-18T00:38:36;5.50;79.40
43346;DHT22;28937;51.160;4.146;2022-12-18T00:41:03;5.40;79.80
43346;DHT22;28937;51.160;4.146;2022-12-18T00:43:28;5.40;80.10
43346;DHT22;28937;51.160;4.146;2022-12-18T00:45:54;5.30;79.80
43346;DHT22;28937;51.160;4.146;2022-12-18T00:48:20;5.30;79.90
43346;DHT22;28937;51.160;4.146;2022-12-18T00:50:48;5.30;79.90
43346;DHT22;28937;51.160;4.146;2022-12-18T00:53:14;5.20;79.80
43346;DHT22;28937;51.160;4.146;2022-12-18T00:55:40;5.20;80.10
43346;DHT22;28937;51.160;4.146;2022-12-18T00:58:07;5.30;80.50
43346;DHT22;28937;51.160;4.146;2022-12-18T01:00:32;5.20;80.30
43346;DHT22;28937;51.160;4.146;2022-12-18T01:02:58;5.20;80.40
43346;DHT22;28937;51.160;4.146;2022-12-18T01:05:24;5.30;80.20
43346;DHT22;28937;51.160;4.146;2022-12-18T01:07:50;5.20;80.80
43346;DHT22;28937;51.160;4.146;2022-12-18T01:10:15;5.20;79.70
43346;DHT22;28937;51.160;4.146;2022-12-18T01:12:41;5.20;79.70
43346;DHT22;28937;51.160;4.146;2022-12-18T01:15:07;5.20;79.50
43346;DHT22;28937;51.160;4.146;2022-12-18T01:17:33;5.10;79.30
43346;DHT22;28937;51.160;4.146;2022-12-18T01:19:59;5.10;79.40
43346;DHT22;28937;51.160;4.146;2022-12-18T01:22:24;5.10;79.00
43346;DHT22;28937;51.160;4.146;2022-12-18T01:24:50;5.10;79.40
43346;DHT22;28937;51.160;4.146;2022-12-18T01:27:15;5.00;79.50
43346;DHT22;28937;51.160;4.146;2022-12-18T01:29:41;5.00;79.10
43346;DHT22;28937;51.160;4.146;2022-12-18T01:32:06;5.00;79.30
43346;DHT22;28937;51.160;4.146;2022-12-18T01:34:32;5.00;79.20
43346;DHT22;28937;51.160;4.146;2022-12-18T01:36:58;4.90;79.40
43346;DHT22;28937;51.160;4.146;2022-12-18T01:39:23;4.90;79.20
43346;DHT22;28937;51.160;4.146;2022-12-18T01:41:49;4.90;79.20
43346;DHT22;28937;51.160;4.146;2022-12-18T01:50:15;4.80;79.50
43346;DHT22;28937;51.160;4.146;2022-12-18T01:52:42;4.80;79.90
43346;DHT22;28937;51.160;4.146;2022-12-18T01:55:12;4.90;79.80
43346;DHT22;28937;51.160;4.146;2022-12-18T01:57:40;4.90;79.60
43346;DHT22;28937;51.160;4.146;2022-12-18T02:00:13;4.90;79.60
43346;DHT22;28937;51.160;4.146;2022-12-18T02:02:40;4.90;79.30
43346;DHT22;28937;51.160;4.146;2022-12-18T02:05:06;4.90;79.10
43346;DHT22;28937;51.160;4.146;2022-12-18T02:13:05;4.80;78.50
43346;DHT22;28937;51.160;4.146;2022-12-18T02:15:51;4.80;78.60
43346;DHT22;28937;51.160;4.146;2022-12-18T02:18:22;4.80;78.50
43346;DHT22;28937;51.160;4.146;2022-12-18T02:20:55;4.70;78.20
43346;DHT22;28937;51.160;4.146;2022-12-18T02:26:22;4.60;78.60
43346;DHT22;28937;51.160;4.146;2022-12-18T02:28:53;4.50;78.60
43346;DHT22;28937;51.160;4.146;2022-12-18T02:31:24;4.50;78.50
43346;DHT22;28937;51.160;4.146;2022-12-18T02:33:52;4.50;78.40
43346;DHT22;28937;51.160;4.146;2022-12-18T02:36:20;4.50;78.40
43346;DHT22;28937;51.160;4.146;2022-12-18T02:38:47;4.50;78.40
43346;DHT22;28937;51.160;4.146;2022-12-18T02:41:14;4.50;78.60
43346;DHT22;28937;51.160;4.146;2022-12-18T02:43:46;4.40;78.80
43346;DHT22;28937;51.160;4.146;2022-12-18T02:46:31;4.40;78.60
43346;DHT22;28937;51.160;4.146;2022-12-18T02:49:22;4.40;78.60
43346;DHT22;28937;51.160;4.146;2022-12-18T02:58:03;4.40;78.20
43346;DHT22;28937;51.160;4.146;2022-12-18T03:00:41;4.30;78.20
43346;DHT22;28937;51.160;4.146;2022-12-18T03:03:21;4.30;78.00
43346;DHT22;28937;51.160;4.146;2022-12-18T03:06:04;4.30;77.80
43346;DHT22;28937;51.160;4.146;2022-12-18T03:08:36;4.30;77.80
43346;DHT22;28937;51.160;4.146;2022-12-18T03:11:09;4.30;77.80
43346;DHT22;28937;51.160;4.146;2022-12-18T03:13:46;4.20;77.80
43346;DHT22;28937;51.160;4.146;2022-12-18T03:16:17;4.20;77.80
43346;DHT22;28937;51.160;4.146;2022-12-18T03:18:51;4.20;77.60
43346;DHT22;28937;51.160;4.146;2022-12-18T03:21:21;4.20;77.40
43346;DHT22;28937;51.160;4.146;2022-12-18T03:23:50;4.30;77.20
43346;DHT22;28937;51.160;4.146;2022-12-18T03:26:22;4.20;77.30
43346;DHT22;28937;51.160;4.146;2022-12-18T03:28:50;4.20;77.60
43346;DHT22;28937;51.160;4.146;2022-12-18T03:31:17;4.40;78.00
43346;DHT22;28937;51.160;4.146;2022-12-18T03:33:53;4.30;77.80
43346;DHT22;28937;51.160;4.146;2022-12-18T03:36:19;4.20;78.20
43346;DHT22;28937;51.160;4.146;2022-12-18T03:38:45;4.30;78.30
43346;DHT22;28937;51.160;4.146;2022-12-18T03:41:41;4.20;78.10
43346;DHT22;28937;51.160;4.146;2022-12-18T03:44:28;4.20;77.80
43346;DHT22;28937;51.160;4.146;2022-12-18T03:49:59;4.30;77.50
43346;DHT22;28937;51.160;4.146;2022-12-18T03:52:42;4.20;77.50
43346;DHT22;28937;51.160;4.146;2022-12-18T03:55:11;4.30;77.10
43346;DHT22;28937;51.160;4.146;2022-12-18T03:57:37;4.20;77.10
43346;DHT22;28937;51.160;4.146;2022-12-18T04:00:10;4.20;77.30
43346;DHT22;28937;51.160;4.146;2022-12-18T04:02:38;4.20;77.30
43346;DHT22;28937;51.160;4.146;2022-12-18T04:05:06;4.20;77.10
43346;DHT22;28937;51.160;4.146;2022-12-18T04:07:32;4.20;77.20
43346;DHT22;28937;51.160;4.146;2022-12-18T04:10:00;4.20;77.70
43346;DHT22;28937;51.160;4.146;2022-12-18T04:12:28;4.10;78.00
43346;DHT22;28937;51.160;4.146;2022-12-18T04:14:55;4.20;77.70
43346;DHT22;28937;51.160;4.146;2022-12-18T04:17:20;4.20;77.80
43346;DHT22;28937;51.160;4.146;2022-12-18T04:19:46;4.10;78.20
43346;DHT22;28937;51.160;4.146;2022-12-18T04:22:11;4.10;78.20
43346;DHT22;28937;51.160;4.146;2022-12-18T04:24:37;4.10;78.20
43346;DHT22;28937;51.160;4.146;2022-12-18T04:27:03;4.20;78.30
43346;DHT22;28937;51.160;4.146;2022-12-18T04:29:29;4.10;78.10
43346;DHT22;28937;51.160;4.146;2022-12-18T04:31:54;4.10;78.20
43346;DHT22;28937;51.160;4.146;2022-12-18T04:34:21;4.20;78.30
43346;DHT22;28937;51.160;4.146;2022-12-18T04:36:46;4.30;78.30
43346;DHT22;28937;51.160;4.146;2022-12-18T04:39:12;4.30;78.10
43346;DHT22;28937;51.160;4.146;2022-12-18T04:41:38;4.30;78.00
43346;DHT22;28937;51.160;4.146;2022-12-18T04:44:03;4.20;78.10
43346;DHT22;28937;51.160;4.146;2022-12-18T04:46:29;4.30;78.00
43346;DHT22;28937;51.160;4.146;2022-12-18T04:48:55;4.20;77.70
43346;DHT22;28937;51.160;4.146;2022-12-18T04:51:20;4.20;77.90
43346;DHT22;28937;51.160;4.146;2022-12-18T04:53:46;4.10;78.10
43346;DHT22;28937;51.160;4.146;2022-12-18T04:56:14;4.20;77.80
43346;DHT22;28937;51.160;4.146;2022-12-18T04:58:41;4.20;77.90
43346;DHT22;28937;51.160;4.146;2022-12-18T05:01:08;4.20;78.00
43346;DHT22;28937;51.160;4.146;2022-12-18T05:03:35;4.20;77.70
43346;DHT22;28937;51.160;4.146;2022-12-18T05:06:00;4.10;78.30
43346;DHT22;28937;51.160;4.146;2022-12-18T05:08:26;4.10;77.80
43346;DHT22;28937;51.160;4.146;2022-12-18T05:11:07;4.10;77.80
43346;DHT22;28937;51.160;4.146;2022-12-18T05:13:34;4.10;77.60
43346;DHT22;28937;51.160;4.146;2022-12-18T05:16:00;4.10;77.70
43346;DHT22;28937;51.160;4.146;2022-12-18T05:18:27;4.10;77.60
43346;DHT22;28937;51.160;4.146;2022-12-18T05:20:53;4.10;77.30
43346;DHT22;28937;51.160;4.146;2022-12-18T05:23:19;4.10;77.20
43346;DHT22;28937;51.160;4.146;2022-12-18T05:25:57;4.10;76.50
43346;DHT22;28937;51.160;4.146;2022-12-18T05:28:25;4.10;76.30
43346;DHT22;28937;51.160;4.146;2022-12-18T05:30:52;4.10;76.80
43346;DHT22;28937;51.160;4.146;2022-12-18T05:33:19;4.10;76.40
43346;DHT22;28937;51.160;4.146;2022-12-18T05:35:49;4.00;76.60
43346;DHT22;28937;51.160;4.146;2022-12-18T05:38:15;4.10;76.70
43346;DHT22;28937;51.160;4.146;2022-12-18T05:40:42;4.00;76.80
43346;DHT22;28937;51.160;4.146;2022-12-18T05:43:08;4.00;76.90
43346;DHT22;28937;51.160;4.146;2022-12-18T05:45:37;4.00;77.10
43346;DHT22;28937;51.160;4.146;2022-12-18T05:48:03;4.00;77.20
43346;DHT22;28937;51.160;4.146;2022-12-18T05:50:28;4.00;77.20
43346;DHT22;28937;51.160;4.146;2022-12-18T05:52:54;4.10;76.90
43346;DHT22;28937;51.160;4.146;2022-12-18T05:55:19;4.10;77.20
43346;DHT22;28937;51.160;4.146;2022-12-18T05:57:45;4.10;76.90
43346;DHT22;28937;51.160;4.146;2022-12-18T06:00:11;4.10;76.70
43346;DHT22;28937;51.160;4.146;2022-12-18T06:02:37;4.10;76.50
43346;DHT22;28937;51.160;4.146;2022-12-18T06:05:02;4.10;76.70
43346;DHT22;28937;51.160;4.146;2022-12-18T06:07:28;4.10;76.70
43346;DHT22;28937;51.160;4.146;2022-12-18T06:09:53;4.00;76.60
43346;DHT22;28937;51.160;4.146;2022-12-18T06:12:19;4.00;76.80
43346;DHT22;28937;51.160;4.146;2022-12-18T06:14:44;4.00;77.20
43346;DHT22;28937;51.160;4.146;2022-12-18T06:17:10;4.00;77.00
43346;DHT22;28937;51.160;4.146;2022-12-18T06:19:35;4.00;77.10
43346;DHT22;28937;51.160;4.146;2022-12-18T06:22:01;4.00;77.30
43346;DHT22;28937;51.160;4.146;2022-12-18T06:24:26;4.00;77.20
43346;DHT22;28937;51.160;4.146;2022-12-18T06:26:52;4.00;77.40
43346;DHT22;28937;51.160;4.146;2022-12-18T06:29:18;4.10;77.10
43346;DHT22;28937;51.160;4.146;2022-12-18T06:31:43;4.10;77.20
43346;DHT22;28937;51.160;4.146;2022-12-18T06:34:09;4.00;77.10
43346;DHT22;28937;51.160;4.146;2022-12-18T06:36:34;4.00;77.10
43346;DHT22;28937;51.160;4.146;2022-12-18T06:39:00;4.00;77.60
43346;DHT22;28937;51.160;4.146;2022-12-18T06:41:25;4.00;76.80
43346;DHT22;28937;51.160;4.146;2022-12-18T06:43:51;3.90;76.70
43346;DHT22;28937;51.160;4.146;2022-12-18T06:46:16;4.00;76.70
43346;DHT22;28937;51.160;4.146;2022-12-18T06:48:42;3.90;76.70
43346;DHT22;28937;51.160;4.146;2022-12-18T06:51:08;4.00;76.70
43346;DHT22;28937;51.160;4.146;2022-12-18T06:53:33;3.90;77.30
43346;DHT22;28937;51.160;4.146;2022-12-18T06:56:03;3.90;76.00
43346;DHT22;28937;51.160;4.146;2022-12-18T06:58:29;3.80;75.70
43346;DHT22;28937;51.160;4.146;2022-12-18T07:01:00;3.70;76.30
43346;DHT22;28937;51.160;4.146;2022-12-18T07:03:26;3.50;76.70
43346;DHT22;28937;51.160;4.146;2022-12-18T07:05:52;3.30;77.20
43346;DHT22;28937;51.160;4.146;2022-12-18T07:08:17;3.30;77.20
43346;DHT22;28937;51.160;4.146;2022-12-18T07:10:43;3.20;77.20
43346;DHT22;28937;51.160;4.146;2022-12-18T07:13:09;3.20;77.40
43346;DHT22;28937;51.160;4.146;2022-12-18T07:15:35;3.10;77.50
43346;DHT22;28937;51.160;4.146;2022-12-18T07:18:00;3.10;77.40
43346;DHT22;28937;51.160;4.146;2022-12-18T07:20:26;3.20;77.40
43346;DHT22;28937;51.160;4.146;2022-12-18T07:22:51;3.30;77.10
43346;DHT22;28937;51.160;4.146;2022-12-18T07:25:17;3.30;77.50
43346;DHT22;28937;51.160;4.146;2022-12-18T07:27:43;3.40;76.80
43346;DHT22;28937;51.160;4.146;2022-12-18T07:30:09;3.40;76.90
43346;DHT22;28937;51.160;4.146;2022-12-18T07:32:35;3.30;77.20
43346;DHT22;28937;51.160;4.146;2022-12-18T07:35:00;3.30;77.00
43346;DHT22;28937;51.160;4.146;2022-12-18T07:37:26;2.70;78.20
43346;DHT22;28937;51.160;4.146;2022-12-18T07:39:51;3.00;78.50
43346;DHT22;28937;51.160;4.146;2022-12-18T07:42:17;3.20;77.60
43346;DHT22;28937;51.160;4.146;2022-12-18T07:45:01;3.30;77.30
43346;DHT22;28937;51.160;4.146;2022-12-18T07:47:28;3.50;76.90
43346;DHT22;28937;51.160;4.146;2022-12-18T07:49:54;3.20;77.70
43346;DHT22;28937;51.160;4.146;2022-12-18T07:52:20;3.40;78.10
43346;DHT22;28937;51.160;4.146;2022-12-18T07:54:46;3.60;77.90
43346;DHT22;28937;51.160;4.146;2022-12-18T07:57:14;3.70;77.30
43346;DHT22;28937;51.160;4.146;2022-12-18T07:59:39;3.70;77.10
43346;DHT22;28937;51.160;4.146;2022-12-18T08:02:05;3.70;77.50
43346;DHT22;28937;51.160;4.146;2022-12-18T08:04:31;3.80;77.00
43346;DHT22;28937;51.160;4.146;2022-12-18T08:06:56;3.80;76.70
43346;DHT22;28937;51.160;4.146;2022-12-18T08:09:22;3.90;76.90
43346;DHT22;28937;51.160;4.146;2022-12-18T08:11:47;3.80;76.80
43346;DHT22;28937;51.160;4.146;2022-12-18T08:14:13;3.90;76.80
43346;DHT22;28937;51.160;4.146;2022-12-18T08:16:39;3.90;76.60
43346;DHT22;28937;51.160;4.146;2022-12-18T08:19:05;4.00;76.80
43346;DHT22;28937;51.160;4.146;2022-12-18T08:21:31;4.10;76.50
43346;DHT22;28937;51.160;4.146;2022-12-18T08:23:59;4.10;76.50
43346;DHT22;28937;51.160;4.146;2022-12-18T08:26:27;4.10;76.00
43346;DHT22;28937;51.160;4.146;2022-12-18T08:28:54;4.10;76.50
43346;DHT22;28937;51.160;4.146;2022-12-18T08:31:21;4.10;76.50
43346;DHT22;28937;51.160;4.146;2022-12-18T08:33:49;4.10;76.90
43346;DHT22;28937;51.160;4.146;2022-12-18T08:36:15;4.20;77.00
43346;DHT22;28937;51.160;4.146;2022-12-18T08:38:40;4.20;77.10
43346;DHT22;28937;51.160;4.146;2022-12-18T08:41:08;4.20;76.90
43346;DHT22;28937;51.160;4.146;2022-12-18T08:43:34;4.20;76.60
43346;DHT22;28937;51.160;4.146;2022-12-18T08:46:19;4.20;76.90
43346;DHT22;28937;51.160;4.146;2022-12-18T08:48:45;4.10;76.90
43346;DHT22;28937;51.160;4.146;2022-12-18T08:51:11;4.30;77.20
43346;DHT22;28937;51.160;4.146;2022-12-18T08:53:37;4.30;76.70
43346;DHT22;28937;51.160;4.146;2022-12-18T08:56:03;4.40;76.30
43346;DHT22;28937;51.160;4.146;2022-12-18T08:58:29;4.30;76.40
43346;DHT22;28937;51.160;4.146;2022-12-18T09:01:03;4.30;77.10
43346;DHT22;28937;51.160;4.146;2022-12-18T09:03:29;4.30;77.00
43346;DHT22;28937;51.160;4.146;2022-12-18T09:05:54;4.30;76.60
43346;DHT22;28937;51.160;4.146;2022-12-18T09:08:20;4.50;76.00
43346;DHT22;28937;51.160;4.146;2022-12-18T09:10:47;4.40;75.90
43346;DHT22;28937;51.160;4.146;2022-12-18T09:13:14;4.40;75.90
43346;DHT22;28937;51.160;4.146;2022-12-18T09:15:45;4.30;76.80
43346;DHT22;28937;51.160;4.146;2022-12-18T09:18:13;4.40;76.80
43346;DHT22;28937;51.160;4.146;2022-12-18T09:20:38;4.50;76.40
43346;DHT22;28937;51.160;4.146;2022-12-18T09:23:05;4.50;76.40
43346;DHT22;28937;51.160;4.146;2022-12-18T09:25:31;4.50;76.40
43346;DHT22;28937;51.160;4.146;2022-12-18T09:27:59;4.60;75.00
43346;DHT22;28937;51.160;4.146;2022-12-18T09:30:26;4.50;76.90
43346;DHT22;28937;51.160;4.146;2022-12-18T09:32:51;4.50;76.10
43346;DHT22;28937;51.160;4.146;2022-12-18T09:35:17;4.50;76.60
43346;DHT22;28937;51.160;4.146;2022-12-18T09:37:43;4.60;75.20
43346;DHT22;28937;51.160;4.146;2022-12-18T09:40:16;4.60;74.70
43346;DHT22;28937;51.160;4.146;2022-12-18T09:42:48;4.50;75.30
43346;DHT22;28937;51.160;4.146;2022-12-18T09:45:17;4.60;75.00
43346;DHT22;28937;51.160;4.146;2022-12-18T09:47:45;4.60;75.40
43346;DHT22;28937;51.160;4.146;2022-12-18T09:50:30;4.70;75.50
43346;DHT22;28937;51.160;4.146;2022-12-18T09:53:02;4.70;75.80
43346;DHT22;28937;51.160;4.146;2022-12-18T09:55:36;4.70;76.40
43346;DHT22;28937;51.160;4.146;2022-12-18T09:58:29;4.70;76.00
43346;DHT22;28937;51.160;4.146;2022-12-18T10:00:53;4.60;74.80
43346;DHT22;28937;51.160;4.146;2022-12-18T10:03:18;4.50;75.30
43346;DHT22;28937;51.160;4.146;2022-12-18T10:11:39;4.30;76.40
43346;DHT22;28937;51.160;4.146;2022-12-18T10:17:17;4.50;76.80
43346;DHT22;28937;51.160;4.146;2022-12-18T10:20:01;4.40;79.10
43346;DHT22;28937;51.160;4.146;2022-12-18T10:25:24;4.70;76.80
43346;DHT22;28937;51.160;4.146;2022-12-18T10:27:55;4.80;77.50
43346;DHT22;28937;51.160;4.146;2022-12-18T10:30:22;4.90;77.50
43346;DHT22;28937;51.160;4.146;2022-12-18T10:32:48;4.70;78.70
43346;DHT22;28937;51.160;4.146;2022-12-18T10:35:26;4.90;78.60
43346;DHT22;28937;51.160;4.146;2022-12-18T10:40:58;5.00;79.10
43346;DHT22;28937;51.160;4.146;2022-12-18T10:43:27;5.00;79.70
43346;DHT22;28937;51.160;4.146;2022-12-18T10:51:05;5.10;79.60
43346;DHT22;28937;51.160;4.146;2022-12-18T10:53:33;5.20;79.40
43346;DHT22;28937;51.160;4.146;2022-12-18T10:56:03;5.30;78.70
43346;DHT22;28937;51.160;4.146;2022-12-18T10:58:33;5.20;78.50
43346;DHT22;28937;51.160;4.146;2022-12-18T11:01:12;5.30;78.90
43346;DHT22;28937;51.160;4.146;2022-12-18T11:03:43;5.30;77.70
43346;DHT22;28937;51.160;4.146;2022-12-18T11:08:38;5.30;81.20
43346;DHT22;28937;51.160;4.146;2022-12-18T11:11:09;5.40;80.40
43346;DHT22;28937;51.160;4.146;2022-12-18T11:14:06;5.40;80.20
43346;DHT22;28937;51.160;4.146;2022-12-18T11:16:44;5.40;80.30
43346;DHT22;28937;51.160;4.146;2022-12-18T11:21:47;5.40;79.30
43346;DHT22;28937;51.160;4.146;2022-12-18T11:24:30;5.40;80.70
43346;DHT22;28937;51.160;4.146;2022-12-18T11:27:01;5.40;81.40
43346;DHT22;28937;51.160;4.146;2022-12-18T11:29:36;5.40;81.50
43346;DHT22;28937;51.160;4.146;2022-12-18T11:34:42;5.40;82.50
43346;DHT22;28937;51.160;4.146;2022-12-18T11:37:11;5.40;82.70
43346;DHT22;28937;51.160;4.146;2022-12-18T11:39:40;5.50;82.20
43346;DHT22;28937;51.160;4.146;2022-12-18T11:47:47;5.60;77.50
43346;DHT22;28937;51.160;4.146;2022-12-18T11:51:00;5.60;77.80
43346;DHT22;28937;51.160;4.146;2022-12-18T11:53:11;5.60;78.00
43346;DHT22;28937;51.160;4.146;2022-12-18T11:58:34;5.40;78.80
43346;DHT22;28937;51.160;4.146;2022-12-18T12:01:43;5.40;78.70
43346;DHT22;28937;51.160;4.146;2022-12-18T12:04:48;5.50;78.70
43346;DHT22;28937;51.160;4.146;2022-12-18T12:10:12;5.50;78.50
43346;DHT22;28937;51.160;4.146;2022-12-18T12:15:57;5.50;81.50
43346;DHT22;28937;51.160;4.146;2022-12-18T12:18:37;5.60;80.80
43346;DHT22;28937;51.160;4.146;2022-12-18T12:21:17;5.70;78.60
43346;DHT22;28937;51.160;4.146;2022-12-18T12:31:48;5.60;80.90
43346;DHT22;28937;51.160;4.146;2022-12-18T12:34:26;5.80;81.50
43346;DHT22;28937;51.160;4.146;2022-12-18T12:40:02;5.80;81.50
43346;DHT22;28937;51.160;4.146;2022-12-18T12:42:35;5.90;81.10
43346;DHT22;28937;51.160;4.146;2022-12-18T12:45:28;5.90;80.40
43346;DHT22;28937;51.160;4.146;2022-12-18T12:47:58;6.00;81.20
43346;DHT22;28937;51.160;4.146;2022-12-18T12:50:26;6.00;81.10
43346;DHT22;28937;51.160;4.146;2022-12-18T12:52:55;6.20;80.70
43346;DHT22;28937;51.160;4.146;2022-12-18T12:55:26;6.20;80.90
43346;DHT22;28937;51.160;4.146;2022-12-18T12:58:01;6.20;78.60
43346;DHT22;28937;51.160;4.146;2022-12-18T13:00:36;6.10;78.20
43346;DHT22;28937;51.160;4.146;2022-12-18T13:05:59;6.10;80.90
43346;DHT22;28937;51.160;4.146;2022-12-18T13:08:28;5.80;83.00
43346;DHT22;28937;51.160;4.146;2022-12-18T13:10:55;6.10;81.40
43346;DHT22;28937;51.160;4.146;2022-12-18T13:13:53;6.20;81.90
43346;DHT22;28937;51.160;4.146;2022-12-18T13:16:21;6.20;81.30
43346;DHT22;28937;51.160;4.146;2022-12-18T13:18:57;6.30;81.20
43346;DHT22;28937;51.160;4.146;2022-12-18T13:21:29;6.20;81.30
43346;DHT22;28937;51.160;4.146;2022-12-18T13:24:16;6.30;81.00
43346;DHT22;28937;51.160;4.146;2022-12-18T13:26:48;6.20;81.50
43346;DHT22;28937;51.160;4.146;2022-12-18T13:29:40;6.40;80.10
43346;DHT22;28937;51.160;4.146;2022-12-18T13:32:15;6.30;78.90
43346;DHT22;28937;51.160;4.146;2022-12-18T13:34:44;6.40;79.50
43346;DHT22;28937;51.160;4.146;2022-12-18T13:39:57;6.30;82.00
43346;DHT22;28937;51.160;4.146;2022-12-18T13:42:31;6.30;82.40
43346;DHT22;28937;51.160;4.146;2022-12-18T13:45:43;6.30;82.10
43346;DHT22;28937;51.160;4.146;2022-12-18T13:48:20;6.50;79.90
43346;DHT22;28937;51.160;4.146;2022-12-18T13:53:28;6.40;82.30
43346;DHT22;28937;51.160;4.146;2022-12-18T13:55:55;6.40;82.60
43346;DHT22;28937;51.160;4.146;2022-12-18T13:58:21;6.40;82.80
43346;DHT22;28937;51.160;4.146;2022-12-18T14:00:47;6.40;82.90
43346;DHT22;28937;51.160;4.146;2022-12-18T14:03:39;6.40;83.80
43346;DHT22;28937;51.160;4.146;2022-12-18T14:06:07;6.30;84.70
43346;DHT22;28937;51.160;4.146;2022-12-18T14:08:40;6.50;83.70
43346;DHT22;28937;51.160;4.146;2022-12-18T14:11:07;6.50;83.50
43346;DHT22;28937;51.160;4.146;2022-12-18T14:13:43;6.60;83.40
43346;DHT22;28937;51.160;4.146;2022-12-18T14:16:14;6.60;82.60
43346;DHT22;28937;51.160;4.146;2022-12-18T14:18:48;6.60;82.70
43346;DHT22;28937;51.160;4.146;2022-12-18T14:21:22;6.60;83.00
43346;DHT22;28937;51.160;4.146;2022-12-18T14:23:49;6.50;87.60
43346;DHT22;28937;51.160;4.146;2022-12-18T14:26:29;6.60;84.40
43346;DHT22;28937;51.160;4.146;2022-12-18T14:28:57;6.70;83.20
43346;DHT22;28937;51.160;4.146;2022-12-18T14:31:25;6.70;83.20
43346;DHT22;28937;51.160;4.146;2022-12-18T14:33:52;6.70;83.00
43346;DHT22;28937;51.160;4.146;2022-12-18T14:36:20;6.70;83.70
43346;DHT22;28937;51.160;4.146;2022-12-18T14:38:51;6.70;83.40
43346;DHT22;28937;51.160;4.146;2022-12-18T14:41:20;6.70;83.00
43346;DHT22;28937;51.160;4.146;2022-12-18T14:43:49;6.70;83.50
43346;DHT22;28937;51.160;4.146;2022-12-18T14:51:51;6.70;82.10
43346;DHT22;28937;51.160;4.146;2022-12-18T14:54:19;6.80;82.10
43346;DHT22;28937;51.160;4.146;2022-12-18T14:57:18;6.90;82.40
43346;DHT22;28937;51.160;4.146;2022-12-18T14:59:37;6.80;82.70
43346;DHT22;28937;51.160;4.146;2022-12-18T15:02:22;6.80;82.90
43346;DHT22;28937;51.160;4.146;2022-12-18T15:05:02;6.80;82.10
43346;DHT22;28937;51.160;4.146;2022-12-18T15:07:45;6.80;82.80
43346;DHT22;28937;51.160;4.146;2022-12-18T15:10:13;6.40;84.80
43346;DHT22;28937;51.160;4.146;2022-12-18T15:20:53;6.90;82.30
43346;DHT22;28937;51.160;4.146;2022-12-18T15:23:24;6.90;82.10
43346;DHT22;28937;51.160;4.146;2022-12-18T15:26:03;6.90;82.20
43346;DHT22;28937;51.160;4.146;2022-12-18T15:28:32;6.90;82.40
43346;DHT22;28937;51.160;4.146;2022-12-18T15:36:13;7.00;82.20
43346;DHT22;28937;51.160;4.146;2022-12-18T15:38:40;7.10;81.60
43346;DHT22;28937;51.160;4.146;2022-12-18T15:41:05;7.10;81.80
43346;DHT22;28937;51.160;4.146;2022-12-18T15:43:31;7.00;81.70
43346;DHT22;28937;51.160;4.146;2022-12-18T15:46:09;7.10;81.00
43346;DHT22;28937;51.160;4.146;2022-12-18T15:48:44;7.10;81.30
43346;DHT22;28937;51.160;4.146;2022-12-18T15:51:16;7.10;80.70
43346;DHT22;28937;51.160;4.146;2022-12-18T15:53:42;7.10;80.40
43346;DHT22;28937;51.160;4.146;2022-12-18T15:56:12;7.20;79.90
43346;DHT22;28937;51.160;4.146;2022-12-18T15:58:56;7.10;80.00
43346;DHT22;28937;51.160;4.146;2022-12-18T16:01:26;7.20;79.70
43346;DHT22;28937;51.160;4.146;2022-12-18T16:03:51;7.10;79.60
43346;DHT22;28937;51.160;4.146;2022-12-18T16:06:19;7.20;78.50
43346;DHT22;28937;51.160;4.146;2022-12-18T16:08:45;7.30;76.90
43346;DHT22;28937;51.160;4.146;2022-12-18T16:11:25;7.20;77.80
43346;DHT22;28937;51.160;4.146;2022-12-18T16:14:24;7.00;78.80
43346;DHT22;28937;51.160;4.146;2022-12-18T16:17:01;7.00;79.30
43346;DHT22;28937;51.160;4.146;2022-12-18T16:19:27;7.00;79.80
43346;DHT22;28937;51.160;4.146;2022-12-18T16:21:55;7.00;79.40
43346;DHT22;28937;51.160;4.146;2022-12-18T16:24:23;7.20;79.10
43346;DHT22;28937;51.160;4.146;2022-12-18T16:26:50;7.20;79.10
43346;DHT22;28937;51.160;4.146;2022-12-18T16:29:20;7.20;79.10
43346;DHT22;28937;51.160;4.146;2022-12-18T16:31:59;7.30;79.10
43346;DHT22;28937;51.160;4.146;2022-12-18T16:34:30;7.30;79.00
43346;DHT22;28937;51.160;4.146;2022-12-18T16:36:58;7.30;79.00
43346;DHT22;28937;51.160;4.146;2022-12-18T16:39:25;7.40;76.60
43346;DHT22;28937;51.160;4.146;2022-12-18T16:41:51;7.30;77.10
43346;DHT22;28937;51.160;4.146;2022-12-18T16:44:17;7.30;76.40
43346;DHT22;28937;51.160;4.146;2022-12-18T16:46:43;7.30;79.00
43346;DHT22;28937;51.160;4.146;2022-12-18T16:49:11;7.20;79.20
43346;DHT22;28937;51.160;4.146;2022-12-18T16:51:38;7.10;79.10
43346;DHT22;28937;51.160;4.146;2022-12-18T16:54:07;7.00;80.00
43346;DHT22;28937;51.160;4.146;2022-12-18T16:56:33;7.20;78.70
43346;DHT22;28937;51.160;4.146;2022-12-18T16:59:00;7.30;78.70
43346;DHT22;28937;51.160;4.146;2022-12-18T17:01:27;7.40;78.70
43346;DHT22;28937;51.160;4.146;2022-12-18T17:04:04;7.10;79.30
43346;DHT22;28937;51.160;4.146;2022-12-18T17:06:33;7.40;77.30
43346;DHT22;28937;51.160;4.146;2022-12-18T17:09:04;7.50;75.90
43346;DHT22;28937;51.160;4.146;2022-12-18T17:11:31;7.40;78.10
43346;DHT22;28937;51.160;4.146;2022-12-18T17:13:56;7.30;79.00
43346;DHT22;28937;51.160;4.146;2022-12-18T17:16:22;7.40;79.00
43346;DHT22;28937;51.160;4.146;2022-12-18T17:18:48;7.50;79.00
43346;DHT22;28937;51.160;4.146;2022-12-18T17:21:15;7.20;80.50
43346;DHT22;28937;51.160;4.146;2022-12-18T17:23:41;6.80;83.10
43346;DHT22;28937;51.160;4.146;2022-12-18T17:26:08;6.70;83.90
43346;DHT22;28937;51.160;4.146;2022-12-18T17:28:36;6.70;83.40
43346;DHT22;28937;51.160;4.146;2022-12-18T17:31:19;6.70;84.10
43346;DHT22;28937;51.160;4.146;2022-12-18T17:33:45;6.70;84.00
43346;DHT22;28937;51.160;4.146;2022-12-18T17:36:11;7.20;81.30
43346;DHT22;28937;51.160;4.146;2022-12-18T17:38:37;7.50;79.90
43346;DHT22;28937;51.160;4.146;2022-12-18T17:41:05;7.60;78.60
43346;DHT22;28937;51.160;4.146;2022-12-18T17:43:31;7.60;78.60
43346;DHT22;28937;51.160;4.146;2022-12-18T17:46:04;7.60;78.80